Wetterdaten: Montag, 18.05.2015
Datum Zeit Auen-Temp. Temp gefhlt Luftfeuchte Luftdruck Regen Wind Richtung Richtung Taupunkt Windben
18.05.2015 00:00 10,0 C 9,9 C 84 % 1020,1 hPa 0,0 mm 0,0 km/h (0 Bft) S-SO 157 7,4 C 0,0 km/h (0 Bft)
18.05.2015 00:05 10,0 C 9,8 C 86 % 1020,1 hPa 0,0 mm 0,0 km/h (0 Bft) S 180 7,8 C 0,0 km/h (0 Bft)
18.05.2015 00:10 9,8 C 9,6 C 86 % 1020,1 hPa 0,0 mm 0,0 km/h (0 Bft) S-SO 157 7,6 C 0,0 km/h (0 Bft)
18.05.2015 00:15 9,8 C 9,6 C 86 % 1019,8 hPa 0,0 mm 0,8 km/h (0 Bft) S 180 7,6 C 4,7 km/h (1 Bft)
18.05.2015 00:20 9,6 C 9,4 C 86 % 1019,8 hPa 0,0 mm 1,0 km/h (0 Bft) S-SO 157 7,4 C 0,0 km/h (0 Bft)
18.05.2015 00:25 9,4 C 9,2 C 86 % 1019,8 hPa 0,0 mm 0,8 km/h (0 Bft) S 180 7,2 C 0,0 km/h (0 Bft)
18.05.2015 00:30 9,2 C 9,0 C 86 % 1019,8 hPa 0,0 mm 0,0 km/h (0 Bft) S-SO 157 7,0 C 0,0 km/h (0 Bft)
18.05.2015 00:35 9,2 C 8,9 C 86 % 1019,6 hPa 0,0 mm 0,0 km/h (0 Bft) SO 135 7,0 C 0,0 km/h (0 Bft)
18.05.2015 00:40 8,7 C 8,5 C 86 % 1019,6 hPa 0,0 mm 0,0 km/h (0 Bft) SO 135 6,5 C 0,0 km/h (0 Bft)
18.05.2015 00:45 8,7 C 8,4 C 86 % 1019,6 hPa 0,0 mm 0,0 km/h (0 Bft) S-SO 157 6,5 C 0,0 km/h (0 Bft)
18.05.2015 00:50 8,6 C 8,3 C 86 % 1019,6 hPa 0,0 mm 0,0 km/h (0 Bft) S-SO 157 6,4 C 0,0 km/h (0 Bft)
18.05.2015 00:55 8,6 C 8,2 C 86 % 1019,4 hPa 0,0 mm 0,0 km/h (0 Bft) S-SO 157 6,4 C 0,0 km/h (0 Bft)
18.05.2015 01:00 8,4 C 8,0 C 86 % 1019,4 hPa 0,0 mm 0,0 km/h (0 Bft) S 180 6,2 C 0,0 km/h (0 Bft)
18.05.2015 01:05 8,1 C 7,8 C 86 % 1019,4 hPa 0,0 mm 0,0 km/h (0 Bft) S 180 5,9 C 0,0 km/h (0 Bft)
18.05.2015 01:10 7,9 C 7,6 C 86 % 1019,4 hPa 0,0 mm 0,0 km/h (0 Bft) S 180 5,7 C 0,0 km/h (0 Bft)
18.05.2015 01:15 8,1 C 7,8 C 86 % 1019,3 hPa 0,0 mm 0,0 km/h (0 Bft) S 180 5,9 C 0,0 km/h (0 Bft)
18.05.2015 01:20 8,1 C 7,8 C 87 % 1019,3 hPa 0,0 mm 0,3 km/h (0 Bft) S 180 6,1 C 0,0 km/h (0 Bft)
18.05.2015 01:25 7,9 C 7,7 C 87 % 1019,3 hPa 0,0 mm 0,3 km/h (0 Bft) W-SW 247 5,9 C 0,0 km/h (0 Bft)
18.05.2015 01:30 7,6 C 7,4 C 87 % 1019,3 hPa 0,0 mm 0,0 km/h (0 Bft) W-SW 247 5,6 C 0,0 km/h (0 Bft)
18.05.2015 01:35 7,5 C 7,3 C 87 % 1018,9 hPa 0,0 mm 0,0 km/h (0 Bft) W-SW 247 5,5 C 0,0 km/h (0 Bft)
18.05.2015 01:40 7,5 C 7,3 C 87 % 1018,9 hPa 0,0 mm 0,0 km/h (0 Bft) S-SO 157 5,5 C 0,0 km/h (0 Bft)
18.05.2015 01:45 7,3 C 7,1 C 87 % 1018,9 hPa 0,0 mm 0,0 km/h (0 Bft) S-SO 157 5,3 C 0,0 km/h (0 Bft)
18.05.2015 01:50 7,0 C 6,8 C 86 % 1018,9 hPa 0,0 mm 0,0 km/h (0 Bft) SW 225 4,8 C 0,0 km/h (0 Bft)
18.05.2015 01:55 7,3 C 7,0 C 87 % 1018,9 hPa 0,0 mm 0,0 km/h (0 Bft) S-SO 157 5,3 C 0,0 km/h (0 Bft)
18.05.2015 02:00 7,1 C 6,9 C 88 % 1018,9 hPa 0,0 mm 0,0 km/h (0 Bft) S-SO 157 5,2 C 0,0 km/h (0 Bft)
18.05.2015 02:05 7,1 C 6,9 C 88 % 1018,9 hPa 0,0 mm 0,0 km/h (0 Bft) S-SO 157 5,2 C 0,0 km/h (0 Bft)
18.05.2015 02:10 6,8 C 6,6 C 88 % 1018,9 hPa 0,0 mm 0,0 km/h (0 Bft) SW 225 5,0 C 0,0 km/h (0 Bft)
18.05.2015 02:15 7,1 C 6,8 C 88 % 1018,6 hPa 0,0 mm 0,0 km/h (0 Bft) S-SO 157 5,2 C 0,0 km/h (0 Bft)
18.05.2015 02:20 6,7 C 6,5 C 88 % 1018,6 hPa 0,0 mm 0,0 km/h (0 Bft) W-SW 247 4,9 C 0,0 km/h (0 Bft)
18.05.2015 02:25 7,0 C 6,7 C 88 % 1018,6 hPa 0,0 mm 0,0 km/h (0 Bft) S 180 5,2 C 0,0 km/h (0 Bft)
18.05.2015 02:30 6,5 C 6,4 C 88 % 1018,6 hPa 0,0 mm 0,0 km/h (0 Bft) S 180 4,7 C 0,0 km/h (0 Bft)
18.05.2015 02:35 6,2 C 6,2 C 88 % 1018,3 hPa 0,0 mm 0,0 km/h (0 Bft) S-SW 202 4,4 C 0,0 km/h (0 Bft)
18.05.2015 02:40 6,2 C 6,1 C 88 % 1018,3 hPa 0,0 mm 0,0 km/h (0 Bft) S-SW 202 4,4 C 0,0 km/h (0 Bft)
18.05.2015 02:45 6,2 C 6,0 C 88 % 1018,3 hPa 0,0 mm 0,0 km/h (0 Bft) S-SW 202 4,4 C 0,0 km/h (0 Bft)
18.05.2015 02:50 6,7 C 6,5 C 86 % 1018,3 hPa 0,0 mm 0,0 km/h (0 Bft) SW 225 4,5 C 0,0 km/h (0 Bft)
18.05.2015 02:55 6,8 C 6,9 C 86 % 1018,2 hPa 0,0 mm 0,0 km/h (0 Bft) S-SO 157 4,6 C 0,0 km/h (0 Bft)
18.05.2015 03:00 6,9 C 6,8 C 86 % 1018,2 hPa 0,0 mm 0,3 km/h (0 Bft) S 180 4,7 C 2,8 km/h (1 Bft)
18.05.2015 03:05 6,8 C 6,9 C 86 % 1018,2 hPa 0,0 mm 0,5 km/h (0 Bft) S 180 4,6 C 0,0 km/h (0 Bft)
18.05.2015 03:10 6,0 C 6,1 C 89 % 1018,2 hPa 0,0 mm 0,3 km/h (0 Bft) S 180 4,3 C 0,0 km/h (0 Bft)
18.05.2015 03:15 5,7 C 5,7 C 89 % 1018,0 hPa 0,0 mm 0,0 km/h (0 Bft) S 180 4,0 C 0,0 km/h (0 Bft)
18.05.2015 03:20 5,6 C 5,5 C 89 % 1018,0 hPa 0,0 mm 0,0 km/h (0 Bft) S 180 3,9 C 0,0 km/h (0 Bft)
18.05.2015 03:25 5,5 C 5,4 C 89 % 1018,0 hPa 0,0 mm 0,0 km/h (0 Bft) S-SW 202 3,8 C 0,0 km/h (0 Bft)
18.05.2015 03:30 5,7 C 5,5 C 89 % 1018,0 hPa 0,0 mm 0,0 km/h (0 Bft) SW 225 4,0 C 0,0 km/h (0 Bft)
18.05.2015 03:35 5,6 C 5,4 C 89 % 1017,8 hPa 0,0 mm 0,0 km/h (0 Bft) SW 225 3,9 C 0,0 km/h (0 Bft)
18.05.2015 03:40 6,3 C 6,0 C 89 % 1017,8 hPa 0,0 mm 1,8 km/h (1 Bft) SW 225 4,6 C 8,0 km/h (2 Bft)
18.05.2015 03:45 6,3 C 6,2 C 89 % 1017,8 hPa 0,0 mm 3,6 km/h (1 Bft) S-SO 157 4,6 C 0,0 km/h (0 Bft)
18.05.2015 03:50 6,0 C 6,0 C 89 % 1017,8 hPa 0,0 mm 2,3 km/h (1 Bft) SW 225 4,3 C 0,0 km/h (0 Bft)
18.05.2015 03:55 6,0 C 5,9 C 89 % 1017,5 hPa 0,0 mm 0,3 km/h (0 Bft) S 180 4,3 C 8,5 km/h (2 Bft)
18.05.2015 04:00 5,6 C 5,6 C 90 % 1017,5 hPa 0,0 mm 0,0 km/h (0 Bft) W-SW 247 4,1 C 0,0 km/h (0 Bft)
18.05.2015 04:05 5,5 C 5,4 C 89 % 1017,5 hPa 0,0 mm 0,0 km/h (0 Bft) W-SW 247 3,8 C 0,0 km/h (0 Bft)
18.05.2015 04:10 5,4 C 5,2 C 89 % 1017,5 hPa 0,0 mm 0,0 km/h (0 Bft) W-SW 247 3,7 C 0,0 km/h (0 Bft)
18.05.2015 04:15 5,1 C 5,0 C 89 % 1017,2 hPa 0,0 mm 0,0 km/h (0 Bft) W-SW 247 3,4 C 0,0 km/h (0 Bft)
18.05.2015 04:20 5,3 C 5,1 C 89 % 1017,2 hPa 0,0 mm 0,0 km/h (0 Bft) S 180 3,6 C 0,0 km/h (0 Bft)
18.05.2015 04:25 5,3 C 5,1 C 89 % 1017,2 hPa 0,0 mm 0,0 km/h (0 Bft) S 180 3,6 C 0,0 km/h (0 Bft)
18.05.2015 04:30 5,4 C 5,2 C 90 % 1017,2 hPa 0,0 mm 0,0 km/h (0 Bft) S 180 3,9 C 0,0 km/h (0 Bft)
18.05.2015 04:35 5,2 C 5,0 C 90 % 1017,1 hPa 0,0 mm 0,0 km/h (0 Bft) S 180 3,7 C 0,0 km/h (0 Bft)
18.05.2015 04:40 5,6 C 5,3 C 90 % 1017,1 hPa 0,0 mm 0,0 km/h (0 Bft) S 180 4,1 C 0,0 km/h (0 Bft)
18.05.2015 04:45 5,4 C 5,2 C 90 % 1017,1 hPa 0,0 mm 0,0 km/h (0 Bft) S 180 3,9 C 0,0 km/h (0 Bft)
18.05.2015 04:50 5,2 C 5,1 C 90 % 1017,1 hPa 0,0 mm 0,0 km/h (0 Bft) S 180 3,7 C 0,0 km/h (0 Bft)
18.05.2015 04:55 5,0 C 4,9 C 90 % 1017,0 hPa 0,0 mm 0,0 km/h (0 Bft) SW 225 3,5 C 0,0 km/h (0 Bft)
18.05.2015 05:00 5,0 C 4,8 C 90 % 1017,0 hPa 0,0 mm 0,0 km/h (0 Bft) SW 225 3,5 C 0,0 km/h (0 Bft)
18.05.2015 05:05 5,3 C 5,0 C 90 % 1017,0 hPa 0,0 mm 0,0 km/h (0 Bft) S 180 3,8 C 0,0 km/h (0 Bft)
18.05.2015 05:10 4,9 C 4,7 C 90 % 1017,0 hPa 0,0 mm 0,0 km/h (0 Bft) SW 225 3,4 C 0,0 km/h (0 Bft)
18.05.2015 05:15 5,0 C 4,8 C 90 % 1016,8 hPa 0,0 mm 0,0 km/h (0 Bft) SW 225 3,5 C 0,0 km/h (0 Bft)
18.05.2015 05:20 4,9 C 4,6 C 90 % 1016,8 hPa 0,0 mm 0,0 km/h (0 Bft) SW 225 3,4 C 0,0 km/h (0 Bft)
18.05.2015 05:25 4,8 C 4,6 C 90 % 1016,8 hPa 0,0 mm 0,0 km/h (0 Bft) SW 225 3,3 C 0,0 km/h (0 Bft)
18.05.2015 05:30 4,8 C 4,6 C 90 % 1016,8 hPa 0,0 mm 0,0 km/h (0 Bft) SW 225 3,3 C 0,0 km/h (0 Bft)
18.05.2015 05:35 4,7 C 4,5 C 90 % 1016,6 hPa 0,0 mm 0,0 km/h (0 Bft) SW 225 3,2 C 0,0 km/h (0 Bft)
18.05.2015 05:40 4,8 C 4,6 C 90 % 1016,6 hPa 0,0 mm 0,0 km/h (0 Bft) SW 225 3,3 C 0,0 km/h (0 Bft)
18.05.2015 05:45 5,1 C 4,8 C 90 % 1016,6 hPa 0,0 mm 0,0 km/h (0 Bft) S-SO 157 3,6 C 0,0 km/h (0 Bft)
18.05.2015 05:50 5,0 C 4,8 C 90 % 1016,6 hPa 0,0 mm 0,0 km/h (0 Bft) S-SO 157 3,5 C 0,0 km/h (0 Bft)
18.05.2015 05:55 5,1 C 5,0 C 91 % 1016,6 hPa 0,0 mm 0,0 km/h (0 Bft) S-SO 157 3,8 C 0,0 km/h (0 Bft)
18.05.2015 06:00 5,0 C 5,0 C 91 % 1016,6 hPa 0,0 mm 0,0 km/h (0 Bft) S-SO 157 3,7 C 0,0 km/h (0 Bft)
18.05.2015 06:05 5,1 C 5,4 C 91 % 1016,6 hPa 0,0 mm 0,0 km/h (0 Bft) S-SO 157 3,8 C 0,0 km/h (0 Bft)
18.05.2015 06:10 5,4 C 5,7 C 87 % 1016,6 hPa 0,0 mm 0,0 km/h (0 Bft) S-SO 157 3,4 C 0,0 km/h (0 Bft)
18.05.2015 06:15 5,5 C 6,5 C 87 % 1016,5 hPa 0,0 mm 0,0 km/h (0 Bft) S-SO 157 3,5 C 0,0 km/h (0 Bft)
18.05.2015 06:20 5,7 C 7,5 C 88 % 1016,5 hPa 0,0 mm 0,0 km/h (0 Bft) S-SO 157 3,9 C 0,0 km/h (0 Bft)
18.05.2015 06:25 5,8 C 8,2 C 88 % 1016,5 hPa 0,0 mm 0,0 km/h (0 Bft) S-SO 157 4,0 C 0,0 km/h (0 Bft)
18.05.2015 06:30 5,9 C 9,4 C 88 % 1016,5 hPa 0,0 mm 0,0 km/h (0 Bft) S-SO 157 4,1 C 0,0 km/h (0 Bft)
18.05.2015 06:35 6,1 C 10,0 C 87 % 1016,3 hPa 0,0 mm 0,0 km/h (0 Bft) S-SO 157 4,1 C 0,0 km/h (0 Bft)
18.05.2015 06:40 6,4 C 10,4 C 87 % 1016,3 hPa 0,0 mm 0,0 km/h (0 Bft) S-SO 157 4,4 C 0,0 km/h (0 Bft)
18.05.2015 06:45 6,8 C 10,9 C 87 % 1016,3 hPa 0,0 mm 0,0 km/h (0 Bft) S-SO 157 4,8 C 0,0 km/h (0 Bft)
18.05.2015 06:50 7,6 C 12,3 C 87 % 1016,3 hPa 0,0 mm 0,0 km/h (0 Bft) S-SO 157 5,6 C 0,0 km/h (0 Bft)
18.05.2015 06:55 7,6 C 13,2 C 90 % 1016,2 hPa 0,0 mm 0,0 km/h (0 Bft) S-SO 157 6,1 C 0,0 km/h (0 Bft)
18.05.2015 07:00 8,1 C 14,2 C 90 % 1016,2 hPa 0,0 mm 0,0 km/h (0 Bft) S-SO 157 6,6 C 0,0 km/h (0 Bft)
18.05.2015 07:05 8,5 C 14,6 C 87 % 1016,2 hPa 0,0 mm 0,0 km/h (0 Bft) S-SO 157 6,5 C 0,0 km/h (0 Bft)
18.05.2015 07:10 9,0 C 15,3 C 89 % 1016,2 hPa 0,0 mm 0,0 km/h (0 Bft) S-SO 157 7,3 C 0,0 km/h (0 Bft)
18.05.2015 07:15 9,3 C 15,8 C 86 % 1016,0 hPa 0,0 mm 0,0 km/h (0 Bft) S-SO 157 7,1 C 0,0 km/h (0 Bft)
18.05.2015 07:20 9,7 C 16,5 C 86 % 1016,0 hPa 0,0 mm 0,0 km/h (0 Bft) S-SO 157 7,5 C 0,0 km/h (0 Bft)
18.05.2015 07:25 10,2 C 17,4 C 88 % 1016,0 hPa 0,0 mm 0,0 km/h (0 Bft) S-SO 157 8,3 C 0,0 km/h (0 Bft)
18.05.2015 07:30 10,5 C 18,1 C 87 % 1016,0 hPa 0,0 mm 0,0 km/h (0 Bft) S-SO 157 8,4 C 0,0 km/h (0 Bft)
18.05.2015 07:35 10,9 C 18,6 C 84 % 1015,7 hPa 0,0 mm 0,0 km/h (0 Bft) S-SO 157 8,3 C 0,0 km/h (0 Bft)
18.05.2015 07:40 11,6 C 19,8 C 84 % 1015,7 hPa 0,0 mm 0,0 km/h (0 Bft) S-SO 157 9,0 C 0,0 km/h (0 Bft)
18.05.2015 07:45 12,0 C 20,6 C 83 % 1015,7 hPa 0,0 mm 0,0 km/h (0 Bft) S-SO 157 9,2 C 0,0 km/h (0 Bft)
18.05.2015 07:50 13,0 C 21,2 C 82 % 1015,7 hPa 0,0 mm 0,0 km/h (0 Bft) W 270 10,0 C 0,0 km/h (0 Bft)
18.05.2015 07:55 13,5 C 21,6 C 83 % 1015,4 hPa 0,0 mm 0,0 km/h (0 Bft) O-SO 112 10,7 C 0,0 km/h (0 Bft)
18.05.2015 08:00 13,2 C 22,2 C 80 % 1015,4 hPa 0,0 mm 0,0 km/h (0 Bft) NO 45 9,8 C 0,0 km/h (0 Bft)
18.05.2015 08:05 13,7 C 22,5 C 79 % 1015,4 hPa 0,0 mm 0,0 km/h (0 Bft) NO 45 10,1 C 0,0 km/h (0 Bft)
18.05.2015 08:10 14,0 C 23,2 C 78 % 1015,4 hPa 0,0 mm 0,0 km/h (0 Bft) O 90 10,2 C 0,0 km/h (0 Bft)
18.05.2015 08:15 14,1 C 23,3 C 77 % 1015,4 hPa 0,0 mm 0,0 km/h (0 Bft) O-SO 112 10,1 C 0,0 km/h (0 Bft)
18.05.2015 08:20 14,4 C 23,0 C 76 % 1015,4 hPa 0,0 mm 0,0 km/h (0 Bft) O-SO 112 10,2 C 0,0 km/h (0 Bft)
18.05.2015 08:25 14,8 C 23,3 C 76 % 1015,4 hPa 0,0 mm 0,0 km/h (0 Bft) N-NO 22 10,6 C 0,0 km/h (0 Bft)
18.05.2015 08:30 15,4 C 23,7 C 75 % 1015,4 hPa 0,0 mm 0,0 km/h (0 Bft) O-SO 112 11,0 C 0,0 km/h (0 Bft)
18.05.2015 08:35 15,7 C 24,2 C 74 % 1015,1 hPa 0,0 mm 0,0 km/h (0 Bft) N-NO 22 11,1 C 0,0 km/h (0 Bft)
18.05.2015 08:40 16,4 C 24,6 C 72 % 1015,1 hPa 0,0 mm 0,0 km/h (0 Bft) N-NO 22 11,3 C 0,0 km/h (0 Bft)
18.05.2015 08:45 16,7 C 24,8 C 71 % 1015,1 hPa 0,0 mm 0,5 km/h (0 Bft) N-NW 337 11,4 C 3,1 km/h (1 Bft)
18.05.2015 08:50 16,7 C 25,0 C 70 % 1015,1 hPa 0,0 mm 1,0 km/h (0 Bft) N-NO 22 11,2 C 4,1 km/h (1 Bft)
18.05.2015 08:55 16,8 C 24,8 C 70 % 1014,8 hPa 0,0 mm 1,0 km/h (0 Bft) NO 45 11,3 C 4,1 km/h (1 Bft)
18.05.2015 09:00 16,8 C 24,9 C 70 % 1014,8 hPa 0,0 mm 2,1 km/h (1 Bft) N-NO 22 11,3 C 0,0 km/h (0 Bft)
18.05.2015 09:05 17,0 C 24,7 C 70 % 1014,8 hPa 0,0 mm 2,3 km/h (1 Bft) N-NW 337 11,5 C 0,0 km/h (0 Bft)
18.05.2015 09:10 17,1 C 24,7 C 69 % 1014,8 hPa 0,0 mm 2,8 km/h (1 Bft) N-NW 337 11,4 C 4,9 km/h (1 Bft)
18.05.2015 09:15 17,2 C 24,5 C 68 % 1014,5 hPa 0,0 mm 2,8 km/h (1 Bft) O-NO 67 11,2 C 3,9 km/h (1 Bft)
18.05.2015 09:20 17,4 C 24,2 C 66 % 1014,5 hPa 0,0 mm 2,6 km/h (1 Bft) O 90 11,0 C 3,4 km/h (1 Bft)
18.05.2015 09:25 17,5 C 24,2 C 65 % 1014,5 hPa 0,0 mm 2,6 km/h (1 Bft) N-NO 22 10,8 C 0,0 km/h (0 Bft)
18.05.2015 09:30 17,7 C 25,0 C 60 % 1014,5 hPa 0,0 mm 2,6 km/h (1 Bft) SO 135 9,8 C 6,0 km/h (2 Bft)
18.05.2015 09:35 17,4 C 24,6 C 59 % 1014,8 hPa 0,0 mm 2,6 km/h (1 Bft) O-NO 67 9,3 C 4,4 km/h (1 Bft)
18.05.2015 09:40 17,7 C 24,2 C 59 % 1014,8 hPa 0,0 mm 3,6 km/h (1 Bft) NW 315 9,6 C 8,0 km/h (2 Bft)
18.05.2015 09:45 17,7 C 23,5 C 59 % 1014,8 hPa 0,0 mm 4,7 km/h (1 Bft) NW 315 9,6 C 10,1 km/h (2 Bft)
18.05.2015 09:50 17,8 C 23,8 C 59 % 1014,8 hPa 0,0 mm 3,4 km/h (1 Bft) SO 135 9,7 C 0,0 km/h (0 Bft)
18.05.2015 09:55 18,0 C 24,2 C 59 % 1014,9 hPa 0,0 mm 2,3 km/h (1 Bft) NO 45 9,9 C 4,9 km/h (1 Bft)
18.05.2015 10:00 18,3 C 25,0 C 59 % 1014,9 hPa 0,0 mm 2,8 km/h (1 Bft) W-NW 292 10,1 C 6,2 km/h (2 Bft)
18.05.2015 10:05 18,5 C 25,1 C 59 % 1014,9 hPa 0,0 mm 3,4 km/h (1 Bft) NW 315 10,3 C 6,2 km/h (2 Bft)
18.05.2015 10:10 18,7 C 25,5 C 57 % 1014,9 hPa 0,0 mm 2,6 km/h (1 Bft) SO 135 10,0 C 4,1 km/h (1 Bft)
18.05.2015 10:15 18,5 C 25,3 C 56 % 1014,7 hPa 0,0 mm 2,6 km/h (1 Bft) O 90 9,6 C 4,9 km/h (1 Bft)
18.05.2015 10:20 18,2 C 24,6 C 57 % 1014,7 hPa 0,0 mm 3,1 km/h (1 Bft) O-SO 112 9,5 C 0,0 km/h (0 Bft)
18.05.2015 10:25 18,3 C 25,0 C 58 % 1014,7 hPa 0,0 mm 3,1 km/h (1 Bft) S 180 9,9 C 6,0 km/h (2 Bft)
18.05.2015 10:30 18,4 C 24,8 C 57 % 1014,7 hPa 0,0 mm 3,4 km/h (1 Bft) N-NO 22 9,7 C 3,1 km/h (1 Bft)
18.05.2015 10:35 18,9 C 25,1 C 58 % 1014,6 hPa 0,0 mm 3,6 km/h (1 Bft) NW 315 10,5 C 6,2 km/h (2 Bft)
18.05.2015 10:40 19,0 C 25,0 C 57 % 1014,6 hPa 0,0 mm 4,1 km/h (1 Bft) N-NW 337 10,3 C 8,0 km/h (2 Bft)
18.05.2015 10:45 18,9 C 24,7 C 57 % 1014,6 hPa 0,0 mm 6,0 km/h (2 Bft) N-NO 22 10,2 C 6,2 km/h (2 Bft)
18.05.2015 10:50 18,7 C 24,3 C 56 % 1014,6 hPa 0,0 mm 6,7 km/h (2 Bft) N-NO 22 9,7 C 7,3 km/h (2 Bft)
18.05.2015 10:55 18,6 C 24,1 C 56 % 1014,6 hPa 0,0 mm 5,4 km/h (1 Bft) O 90 9,6 C 10,4 km/h (2 Bft)
18.05.2015 11:00 18,7 C 24,8 C 55 % 1014,6 hPa 0,0 mm 4,1 km/h (1 Bft) SO 135 9,5 C 5,4 km/h (1 Bft)
18.05.2015 11:05 18,9 C 25,0 C 56 % 1014,6 hPa 0,0 mm 2,6 km/h (1 Bft) O-NO 67 9,9 C 4,9 km/h (1 Bft)
18.05.2015 11:10 18,9 C 24,8 C 56 % 1014,6 hPa 0,0 mm 3,4 km/h (1 Bft) O-NO 67 9,9 C 4,9 km/h (1 Bft)
18.05.2015 11:15 18,9 C 24,7 C 56 % 1014,8 hPa 0,0 mm 3,9 km/h (1 Bft) N 360 9,9 C 4,1 km/h (1 Bft)
18.05.2015 11:20 19,2 C 25,0 C 56 % 1014,8 hPa 0,0 mm 3,4 km/h (1 Bft) N-NW 337 10,2 C 2,8 km/h (1 Bft)
18.05.2015 11:25 19,1 C 25,1 C 56 % 1014,8 hPa 0,0 mm 3,9 km/h (1 Bft) N-NW 337 10,1 C 5,2 km/h (1 Bft)
18.05.2015 11:30 19,5 C 25,3 C 56 % 1014,8 hPa 0,0 mm 4,4 km/h (1 Bft) SW 225 10,5 C 6,0 km/h (2 Bft)
18.05.2015 11:35 19,6 C 25,3 C 56 % 1014,5 hPa 0,0 mm 4,1 km/h (1 Bft) NO 45 10,6 C 7,8 km/h (2 Bft)
18.05.2015 11:40 19,5 C 24,9 C 57 % 1014,5 hPa 0,0 mm 5,4 km/h (1 Bft) NO 45 10,8 C 7,5 km/h (2 Bft)
18.05.2015 11:45 19,5 C 24,6 C 56 % 1014,5 hPa 0,0 mm 6,7 km/h (2 Bft) O-NO 67 10,5 C 6,2 km/h (2 Bft)
18.05.2015 11:50 19,8 C 24,7 C 56 % 1014,5 hPa 0,0 mm 5,7 km/h (1 Bft) N-NW 337 10,8 C 7,5 km/h (2 Bft)
18.05.2015 11:55 19,7 C 24,6 C 57 % 1014,4 hPa 0,0 mm 5,4 km/h (1 Bft) O-SO 112 10,9 C 10,9 km/h (2 Bft)
18.05.2015 12:00 20,1 C 24,7 C 56 % 1014,4 hPa 0,0 mm 6,2 km/h (2 Bft) N-NW 337 11,0 C 7,5 km/h (2 Bft)
18.05.2015 12:05 20,1 C 24,7 C 56 % 1014,4 hPa 0,0 mm 6,0 km/h (2 Bft) NW 315 11,0 C 8,8 km/h (2 Bft)
18.05.2015 12:10 20,2 C 24,9 C 56 % 1014,4 hPa 0,0 mm 4,9 km/h (1 Bft) O-NO 67 11,1 C 7,0 km/h (2 Bft)
18.05.2015 12:15 20,0 C 25,2 C 56 % 1014,1 hPa 0,0 mm 4,1 km/h (1 Bft) W 270 11,0 C 5,7 km/h (1 Bft)
18.05.2015 12:20 19,9 C 25,3 C 56 % 1014,1 hPa 0,0 mm 4,4 km/h (1 Bft) NW 315 10,9 C 13,7 km/h (3 Bft)
18.05.2015 12:25 20,2 C 24,8 C 56 % 1014,1 hPa 0,0 mm 6,0 km/h (2 Bft) N-NO 22 11,1 C 18,6 km/h (3 Bft)
18.05.2015 12:30 20,4 C 24,8 C 56 % 1014,1 hPa 0,0 mm 8,0 km/h (2 Bft) N-NO 22 11,3 C 8,0 km/h (2 Bft)
18.05.2015 12:35 20,5 C 24,7 C 56 % 1013,9 hPa 0,0 mm 7,3 km/h (2 Bft) W 270 11,4 C 4,9 km/h (1 Bft)
18.05.2015 12:40 20,8 C 24,9 C 56 % 1013,9 hPa 0,0 mm 6,5 km/h (2 Bft) O-NO 67 11,7 C 3,6 km/h (1 Bft)
18.05.2015 12:45 20,7 C 25,0 C 56 % 1013,9 hPa 0,0 mm 6,2 km/h (2 Bft) O-NO 67 11,6 C 4,7 km/h (1 Bft)
18.05.2015 12:50 20,7 C 24,4 C 56 % 1013,9 hPa 0,0 mm 6,2 km/h (2 Bft) O 90 11,6 C 0,0 km/h (0 Bft)
18.05.2015 12:55 20,8 C 23,9 C 56 % 1013,6 hPa 0,0 mm 5,4 km/h (1 Bft) N-NW 337 11,7 C 4,9 km/h (1 Bft)
18.05.2015 13:00 20,8 C 22,7 C 56 % 1013,6 hPa 0,0 mm 6,5 km/h (2 Bft) NW 315 11,7 C 8,0 km/h (2 Bft)
18.05.2015 13:05 21,0 C 22,8 C 56 % 1013,6 hPa 0,0 mm 7,0 km/h (2 Bft) NW 315 11,9 C 4,9 km/h (1 Bft)
18.05.2015 13:10 21,2 C 23,5 C 55 % 1013,6 hPa 0,0 mm 6,2 km/h (2 Bft) W-SW 247 11,8 C 5,2 km/h (1 Bft)
18.05.2015 13:15 21,3 C 24,0 C 56 % 1013,6 hPa 0,0 mm 6,2 km/h (2 Bft) N-NW 337 12,2 C 8,5 km/h (2 Bft)
18.05.2015 13:20 21,5 C 24,6 C 55 % 1013,6 hPa 0,0 mm 6,0 km/h (2 Bft) NW 315 12,1 C 8,3 km/h (2 Bft)
18.05.2015 13:25 21,3 C 24,6 C 55 % 1013,6 hPa 0,0 mm 7,3 km/h (2 Bft) N 360 11,9 C 12,4 km/h (3 Bft)
18.05.2015 13:30 21,3 C 24,9 C 55 % 1013,6 hPa 0,0 mm 7,0 km/h (2 Bft) O 90 11,9 C 8,5 km/h (2 Bft)
18.05.2015 13:35 21,1 C 25,3 C 55 % 1013,2 hPa 0,0 mm 5,4 km/h (1 Bft) O-NO 67 11,7 C 9,8 km/h (2 Bft)
18.05.2015 13:40 20,9 C 25,2 C 54 % 1013,2 hPa 0,0 mm 6,0 km/h (2 Bft) O 90 11,2 C 11,7 km/h (2 Bft)
18.05.2015 13:45 20,8 C 25,0 C 55 % 1013,2 hPa 0,0 mm 7,5 km/h (2 Bft) O-NO 67 11,4 C 11,1 km/h (2 Bft)
18.05.2015 13:50 20,8 C 24,8 C 55 % 1013,2 hPa 0,0 mm 7,5 km/h (2 Bft) N-NW 337 11,4 C 7,0 km/h (2 Bft)
18.05.2015 13:55 21,3 C 25,0 C 54 % 1012,9 hPa 0,0 mm 8,3 km/h (2 Bft) O 90 11,6 C 2,8 km/h (1 Bft)
18.05.2015 14:00 21,5 C 25,5 C 54 % 1012,9 hPa 0,0 mm 6,0 km/h (2 Bft) S-SO 157 11,8 C 0,0 km/h (0 Bft)
18.05.2015 14:05 21,4 C 25,7 C 54 % 1012,9 hPa 0,0 mm 4,7 km/h (1 Bft) NW 315 11,7 C 5,2 km/h (1 Bft)
18.05.2015 14:10 21,4 C 26,0 C 54 % 1012,9 hPa 0,0 mm 4,1 km/h (1 Bft) NW 315 11,7 C 0,0 km/h (0 Bft)
18.05.2015 14:15 21,3 C 26,4 C 54 % 1012,4 hPa 0,0 mm 3,9 km/h (1 Bft) O-NO 67 11,6 C 3,1 km/h (1 Bft)
18.05.2015 14:20 21,6 C 26,7 C 55 % 1012,4 hPa 0,0 mm 3,4 km/h (1 Bft) O-NO 67 12,2 C 0,0 km/h (0 Bft)
18.05.2015 14:25 22,1 C 27,3 C 55 % 1012,4 hPa 0,0 mm 3,1 km/h (1 Bft) W-NW 292 12,6 C 10,6 km/h (2 Bft)
18.05.2015 14:30 22,5 C 27,1 C 54 % 1012,4 hPa 0,0 mm 4,7 km/h (1 Bft) NW 315 12,7 C 9,3 km/h (2 Bft)
18.05.2015 14:35 22,5 C 26,7 C 53 % 1012,1 hPa 0,0 mm 5,7 km/h (1 Bft) S-SO 157 12,4 C 3,4 km/h (1 Bft)
18.05.2015 14:40 22,4 C 26,9 C 53 % 1012,1 hPa 0,0 mm 4,7 km/h (1 Bft) N-NW 337 12,3 C 3,4 km/h (1 Bft)
18.05.2015 14:45 22,3 C 26,9 C 52 % 1012,1 hPa 0,0 mm 4,9 km/h (1 Bft) NO 45 12,0 C 10,1 km/h (2 Bft)
18.05.2015 14:50 21,9 C 26,5 C 53 % 1012,1 hPa 0,0 mm 5,4 km/h (1 Bft) N-NO 22 11,9 C 4,1 km/h (1 Bft)
18.05.2015 14:55 22,0 C 26,6 C 53 % 1011,6 hPa 0,0 mm 5,7 km/h (1 Bft) O-NO 67 12,0 C 10,9 km/h (2 Bft)
18.05.2015 15:00 22,0 C 26,4 C 53 % 1011,6 hPa 0,0 mm 6,5 km/h (2 Bft) NW 315 12,0 C 8,0 km/h (2 Bft)
18.05.2015 15:05 22,5 C 26,5 C 54 % 1011,6 hPa 0,0 mm 7,0 km/h (2 Bft) SW 225 12,7 C 6,7 km/h (2 Bft)
18.05.2015 15:10 22,3 C 26,8 C 53 % 1011,6 hPa 0,0 mm 4,4 km/h (1 Bft) N-NW 337 12,2 C 9,3 km/h (2 Bft)
18.05.2015 15:15 22,6 C 27,1 C 53 % 1011,4 hPa 0,0 mm 3,9 km/h (1 Bft) N-NO 22 12,5 C 3,6 km/h (1 Bft)
18.05.2015 15:20 23,0 C 27,2 C 50 % 1011,4 hPa 0,0 mm 5,7 km/h (1 Bft) W 270 12,0 C 8,5 km/h (2 Bft)
18.05.2015 15:25 22,8 C 27,1 C 52 % 1011,4 hPa 0,0 mm 5,7 km/h (1 Bft) SW 225 12,4 C 0,0 km/h (0 Bft)
18.05.2015 15:30 22,6 C 27,1 C 51 % 1011,4 hPa 0,0 mm 5,2 km/h (1 Bft) NW 315 11,9 C 4,4 km/h (1 Bft)
18.05.2015 15:35 22,9 C 27,2 C 51 % 1011,2 hPa 0,0 mm 5,2 km/h (1 Bft) NW 315 12,2 C 4,4 km/h (1 Bft)
18.05.2015 15:40 23,3 C 27,3 C 49 % 1011,2 hPa 0,0 mm 5,7 km/h (1 Bft) W-NW 292 12,0 C 7,3 km/h (2 Bft)
18.05.2015 15:45 23,2 C 27,5 C 48 % 1011,2 hPa 0,0 mm 4,4 km/h (1 Bft) SO 135 11,6 C 2,8 km/h (1 Bft)
18.05.2015 15:50 23,2 C 27,9 C 49 % 1011,2 hPa 0,0 mm 4,4 km/h (1 Bft) S-SW 202 11,9 C 7,5 km/h (2 Bft)
18.05.2015 15:55 22,9 C 27,7 C 49 % 1010,8 hPa 0,0 mm 5,2 km/h (1 Bft) N-NW 337 11,6 C 5,7 km/h (1 Bft)
18.05.2015 16:00 22,7 C 27,5 C 49 % 1010,8 hPa 0,0 mm 6,0 km/h (2 Bft) N-NO 22 11,4 C 9,8 km/h (2 Bft)
18.05.2015 16:05 22,2 C 27,3 C 49 % 1010,8 hPa 0,0 mm 6,7 km/h (2 Bft) N-NW 337 11,0 C 12,9 km/h (3 Bft)
18.05.2015 16:10 22,0 C 27,0 C 49 % 1010,8 hPa 0,0 mm 8,0 km/h (2 Bft) W-NW 292 10,8 C 5,4 km/h (1 Bft)
18.05.2015 16:15 21,8 C 27,1 C 51 % 1010,4 hPa 0,0 mm 7,3 km/h (2 Bft) NW 315 11,2 C 10,1 km/h (2 Bft)
18.05.2015 16:20 21,6 C 26,9 C 51 % 1010,4 hPa 0,0 mm 6,2 km/h (2 Bft) O-NO 67 11,0 C 7,8 km/h (2 Bft)
18.05.2015 16:25 21,6 C 26,9 C 51 % 1010,4 hPa 0,0 mm 7,5 km/h (2 Bft) N-NW 337 11,0 C 6,5 km/h (2 Bft)
18.05.2015 16:30 21,7 C 27,1 C 51 % 1010,4 hPa 0,0 mm 5,7 km/h (1 Bft) NW 315 11,1 C 12,9 km/h (3 Bft)
18.05.2015 16:35 21,7 C 27,1 C 51 % 1010,8 hPa 0,0 mm 6,5 km/h (2 Bft) W-NW 292 11,1 C 7,3 km/h (2 Bft)
18.05.2015 16:40 21,5 C 27,1 C 51 % 1010,8 hPa 0,0 mm 7,0 km/h (2 Bft) W 270 10,9 C 7,3 km/h (2 Bft)
18.05.2015 16:45 21,4 C 26,8 C 51 % 1010,8 hPa 0,0 mm 5,2 km/h (1 Bft) W 270 10,8 C 0,0 km/h (0 Bft)
18.05.2015 16:50 21,3 C 25,2 C 51 % 1010,8 hPa 0,0 mm 3,9 km/h (1 Bft) W-NW 292 10,7 C 8,0 km/h (2 Bft)
18.05.2015 16:55 21,3 C 24,4 C 51 % 1009,9 hPa 0,0 mm 4,4 km/h (1 Bft) NW 315 10,7 C 11,4 km/h (2 Bft)
18.05.2015 17:00 21,4 C 23,5 C 51 % 1009,9 hPa 0,0 mm 4,4 km/h (1 Bft) NW 315 10,8 C 7,3 km/h (2 Bft)
18.05.2015 17:05 21,3 C 23,2 C 50 % 1009,9 hPa 0,0 mm 4,7 km/h (1 Bft) N-NW 337 10,4 C 9,3 km/h (2 Bft)
18.05.2015 17:10 21,5 C 23,0 C 51 % 1009,9 hPa 0,0 mm 6,0 km/h (2 Bft) N-NW 337 10,9 C 5,2 km/h (1 Bft)
18.05.2015 17:15 21,5 C 22,9 C 51 % 1009,8 hPa 0,0 mm 5,2 km/h (1 Bft) NW 315 10,9 C 3,4 km/h (1 Bft)
18.05.2015 17:20 21,5 C 22,8 C 51 % 1009,8 hPa 0,0 mm 5,4 km/h (1 Bft) NW 315 10,9 C 6,0 km/h (2 Bft)
18.05.2015 17:25 21,5 C 22,8 C 51 % 1009,8 hPa 0,0 mm 4,1 km/h (1 Bft) O-NO 67 10,9 C 0,0 km/h (0 Bft)
18.05.2015 17:30 21,5 C 22,8 C 51 % 1009,8 hPa 0,0 mm 4,1 km/h (1 Bft) W 270 10,9 C 8,3 km/h (2 Bft)
18.05.2015 17:35 21,4 C 22,8 C 50 % 1009,7 hPa 0,0 mm 3,9 km/h (1 Bft) S 180 10,5 C 0,0 km/h (0 Bft)
18.05.2015 17:40 21,4 C 22,8 C 51 % 1009,7 hPa 0,0 mm 3,1 km/h (1 Bft) O-SO 112 10,8 C 6,7 km/h (2 Bft)
18.05.2015 17:45 21,4 C 22,7 C 51 % 1009,7 hPa 0,0 mm 2,8 km/h (1 Bft) N-NO 22 10,8 C 0,0 km/h (0 Bft)
18.05.2015 17:50 21,5 C 22,8 C 52 % 1009,7 hPa 0,0 mm 4,4 km/h (1 Bft) NO 45 11,2 C 12,9 km/h (3 Bft)
18.05.2015 17:55 21,4 C 22,6 C 52 % 1009,6 hPa 0,0 mm 4,7 km/h (1 Bft) W 270 11,1 C 0,0 km/h (0 Bft)
18.05.2015 18:00 21,3 C 22,5 C 53 % 1009,6 hPa 0,0 mm 3,4 km/h (1 Bft) O-SO 112 11,3 C 2,6 km/h (1 Bft)
18.05.2015 18:05 21,3 C 22,5 C 53 % 1009,6 hPa 0,0 mm 2,6 km/h (1 Bft) O-SO 112 11,3 C 5,7 km/h (1 Bft)
18.05.2015 18:10 21,3 C 22,6 C 53 % 1009,6 hPa 0,0 mm 3,1 km/h (1 Bft) NO 45 11,3 C 6,2 km/h (2 Bft)
18.05.2015 18:15 21,4 C 22,6 C 53 % 1009,2 hPa 0,0 mm 4,1 km/h (1 Bft) N-NO 22 11,4 C 7,8 km/h (2 Bft)
18.05.2015 18:20 20,9 C 22,3 C 53 % 1009,2 hPa 0,0 mm 4,4 km/h (1 Bft) NO 45 11,0 C 2,8 km/h (1 Bft)
18.05.2015 18:25 20,8 C 21,9 C 53 % 1009,2 hPa 0,0 mm 3,9 km/h (1 Bft) O-NO 67 10,9 C 6,7 km/h (2 Bft)
18.05.2015 18:30 20,6 C 21,5 C 54 % 1009,2 hPa 0,0 mm 2,3 km/h (1 Bft) NW 315 11,0 C 2,8 km/h (1 Bft)
18.05.2015 18:35 20,5 C 21,4 C 55 % 1009,3 hPa 0,0 mm 1,3 km/h (1 Bft) N-NO 22 11,1 C 0,0 km/h (0 Bft)
18.05.2015 18:40 20,4 C 21,5 C 57 % 1009,3 hPa 0,0 mm 0,0 km/h (0 Bft) NW 315 11,6 C 0,0 km/h (0 Bft)
18.05.2015 18:45 20,5 C 21,7 C 56 % 1009,3 hPa 0,0 mm 0,8 km/h (0 Bft) NW 315 11,4 C 2,6 km/h (1 Bft)
18.05.2015 18:50 20,9 C 22,7 C 55 % 1009,3 hPa 0,0 mm 3,4 km/h (1 Bft) N-NO 22 11,5 C 4,1 km/h (1 Bft)
18.05.2015 18:55 21,1 C 23,5 C 55 % 1009,2 hPa 0,0 mm 3,9 km/h (1 Bft) W-SW 247 11,7 C 3,6 km/h (1 Bft)
18.05.2015 19:00 21,1 C 23,8 C 55 % 1009,2 hPa 0,0 mm 4,7 km/h (1 Bft) NW 315 11,7 C 10,9 km/h (2 Bft)
18.05.2015 19:05 20,9 C 23,1 C 55 % 1009,2 hPa 0,0 mm 5,2 km/h (1 Bft) N 360 11,5 C 7,5 km/h (2 Bft)
18.05.2015 19:10 20,9 C 22,9 C 55 % 1009,2 hPa 0,0 mm 4,4 km/h (1 Bft) N-NO 22 11,5 C 5,7 km/h (1 Bft)
18.05.2015 19:15 21,0 C 23,6 C 55 % 1009,2 hPa 0,0 mm 2,8 km/h (1 Bft) N-NW 337 11,6 C 3,9 km/h (1 Bft)
18.05.2015 19:20 21,2 C 24,1 C 54 % 1009,2 hPa 0,0 mm 3,1 km/h (1 Bft) O-NO 67 11,5 C 0,0 km/h (0 Bft)
18.05.2015 19:25 20,8 C 23,9 C 54 % 1009,2 hPa 0,0 mm 3,1 km/h (1 Bft) NW 315 11,1 C 7,0 km/h (2 Bft)
18.05.2015 19:30 20,3 C 22,5 C 54 % 1009,2 hPa 0,0 mm 4,4 km/h (1 Bft) N-NO 22 10,7 C 6,7 km/h (2 Bft)
18.05.2015 19:35 20,0 C 21,7 C 54 % 1009,2 hPa 0,0 mm 5,4 km/h (1 Bft) N-NO 22 10,4 C 7,0 km/h (2 Bft)
18.05.2015 19:40 19,4 C 20,6 C 55 % 1009,2 hPa 0,0 mm 2,6 km/h (1 Bft) NW 315 10,1 C 0,0 km/h (0 Bft)
18.05.2015 19:45 19,2 C 20,1 C 55 % 1009,2 hPa 0,0 mm 1,0 km/h (0 Bft) SW 225 9,9 C 3,1 km/h (1 Bft)
18.05.2015 19:50 19,2 C 19,7 C 56 % 1009,2 hPa 0,0 mm 0,3 km/h (0 Bft) W 270 10,2 C 0,0 km/h (0 Bft)
18.05.2015 19:55 19,0 C 19,7 C 57 % 1009,3 hPa 0,0 mm 0,3 km/h (0 Bft) SW 225 10,3 C 0,0 km/h (0 Bft)
18.05.2015 20:00 18,7 C 19,4 C 59 % 1009,3 hPa 0,0 mm 0,0 km/h (0 Bft) SW 225 10,5 C 0,0 km/h (0 Bft)
18.05.2015 20:05 18,7 C 19,2 C 59 % 1009,3 hPa 0,0 mm 0,0 km/h (0 Bft) SW 225 10,5 C 0,0 km/h (0 Bft)
18.05.2015 20:10 18,6 C 19,0 C 58 % 1009,3 hPa 0,0 mm 0,3 km/h (0 Bft) NW 315 10,2 C 0,0 km/h (0 Bft)
18.05.2015 20:15 18,7 C 19,4 C 58 % 1009,2 hPa 0,0 mm 0,3 km/h (0 Bft) NW 315 10,3 C 0,0 km/h (0 Bft)
18.05.2015 20:20 18,2 C 19,4 C 58 % 1009,2 hPa 0,0 mm 0,0 km/h (0 Bft) W-SW 247 9,8 C 0,0 km/h (0 Bft)
18.05.2015 20:25 18,2 C 19,1 C 58 % 1009,2 hPa 0,0 mm 1,0 km/h (0 Bft) SW 225 9,8 C 5,2 km/h (1 Bft)
18.05.2015 20:30 18,1 C 18,7 C 58 % 1009,2 hPa 0,0 mm 1,8 km/h (1 Bft) NW 315 9,7 C 6,7 km/h (2 Bft)
18.05.2015 20:35 17,9 C 18,6 C 58 % 1009,4 hPa 0,0 mm 1,3 km/h (1 Bft) W-SW 247 9,5 C 0,0 km/h (0 Bft)
18.05.2015 20:40 17,7 C 18,1 C 58 % 1009,4 hPa 0,0 mm 0,8 km/h (0 Bft) S-SO 157 9,3 C 0,0 km/h (0 Bft)
18.05.2015 20:45 17,6 C 17,9 C 58 % 1009,4 hPa 0,0 mm 0,5 km/h (0 Bft) S-SW 202 9,2 C 0,0 km/h (0 Bft)
18.05.2015 20:50 17,5 C 17,7 C 59 % 1009,4 hPa 0,0 mm 0,3 km/h (0 Bft) S 180 9,4 C 0,0 km/h (0 Bft)
18.05.2015 20:55 17,3 C 17,5 C 60 % 1009,2 hPa 0,0 mm 0,3 km/h (0 Bft) S 180 9,5 C 0,0 km/h (0 Bft)
18.05.2015 21:00 17,3 C 17,4 C 60 % 1009,2 hPa 0,0 mm 0,5 km/h (0 Bft) S-SO 157 9,5 C 0,0 km/h (0 Bft)
18.05.2015 21:05 17,3 C 17,3 C 60 % 1009,2 hPa 0,0 mm 0,5 km/h (0 Bft) SW 225 9,5 C 4,4 km/h (1 Bft)
18.05.2015 21:10 17,4 C 17,4 C 60 % 1009,2 hPa 0,0 mm 1,6 km/h (1 Bft) S 180 9,6 C 4,1 km/h (1 Bft)
18.05.2015 21:15 17,3 C 17,3 C 60 % 1009,4 hPa 0,0 mm 3,1 km/h (1 Bft) SW 225 9,5 C 7,8 km/h (2 Bft)
18.05.2015 21:20 17,1 C 17,3 C 61 % 1009,4 hPa 0,0 mm 4,1 km/h (1 Bft) SW 225 9,5 C 6,2 km/h (2 Bft)
18.05.2015 21:25 17,1 C 17,3 C 61 % 1009,4 hPa 0,0 mm 4,1 km/h (1 Bft) S 180 9,5 C 0,0 km/h (0 Bft)
18.05.2015 21:30 16,9 C 17,2 C 62 % 1009,4 hPa 0,0 mm 3,4 km/h (1 Bft) W-SW 247 9,6 C 6,0 km/h (2 Bft)
18.05.2015 21:35 16,9 C 17,1 C 62 % 1009,3 hPa 0,0 mm 3,6 km/h (1 Bft) S-SW 202 9,6 C 6,5 km/h (2 Bft)
18.05.2015 21:40 16,9 C 17,1 C 62 % 1009,3 hPa 0,0 mm 4,1 km/h (1 Bft) S 180 9,6 C 6,2 km/h (2 Bft)
18.05.2015 21:45 16,6 C 16,9 C 63 % 1009,3 hPa 0,0 mm 2,8 km/h (1 Bft) S 180 9,5 C 0,0 km/h (0 Bft)
18.05.2015 21:50 16,3 C 16,5 C 63 % 1009,3 hPa 0,0 mm 0,5 km/h (0 Bft) S 180 9,2 C 0,0 km/h (0 Bft)
18.05.2015 21:55 16,1 C 16,3 C 64 % 1009,4 hPa 0,0 mm 0,0 km/h (0 Bft) N-NO 22 9,3 C 0,0 km/h (0 Bft)
18.05.2015 22:00 15,9 C 15,9 C 66 % 1009,4 hPa 0,0 mm 0,0 km/h (0 Bft) N-NO 22 9,6 C 0,0 km/h (0 Bft)
18.05.2015 22:05 15,8 C 15,7 C 67 % 1009,4 hPa 0,0 mm 0,0 km/h (0 Bft) N-NO 22 9,7 C 0,0 km/h (0 Bft)
18.05.2015 22:10 15,6 C 15,5 C 69 % 1009,4 hPa 0,0 mm 0,0 km/h (0 Bft) O-NO 67 9,9 C 0,0 km/h (0 Bft)
18.05.2015 22:15 15,5 C 15,4 C 69 % 1009,4 hPa 0,0 mm 0,3 km/h (0 Bft) S 180 9,8 C 0,0 km/h (0 Bft)
18.05.2015 22:20 15,4 C 15,3 C 70 % 1009,4 hPa 0,0 mm 0,3 km/h (0 Bft) S 180 10,0 C 0,0 km/h (0 Bft)
18.05.2015 22:25 15,2 C 15,1 C 70 % 1009,4 hPa 0,0 mm 0,0 km/h (0 Bft) S-SW 202 9,8 C 0,0 km/h (0 Bft)
18.05.2015 22:30 14,8 C 14,6 C 71 % 1009,4 hPa 0,0 mm 0,0 km/h (0 Bft) S 180 9,6 C 0,0 km/h (0 Bft)
18.05.2015 22:35 14,5 C 14,3 C 71 % 1009,2 hPa 0,0 mm 0,0 km/h (0 Bft) S 180 9,3 C 0,0 km/h (0 Bft)
18.05.2015 22:40 14,2 C 14,0 C 72 % 1009,2 hPa 0,0 mm 0,0 km/h (0 Bft) S 180 9,2 C 0,0 km/h (0 Bft)
18.05.2015 22:45 14,2 C 13,9 C 73 % 1009,2 hPa 0,0 mm 0,0 km/h (0 Bft) S 180 9,4 C 0,0 km/h (0 Bft)
18.05.2015 22:50 14,0 C 13,7 C 73 % 1009,2 hPa 0,0 mm 0,0 km/h (0 Bft) S 180 9,2 C 0,0 km/h (0 Bft)
18.05.2015 22:55 13,9 C 13,5 C 74 % 1009,4 hPa 0,0 mm 0,0 km/h (0 Bft) S 180 9,3 C 0,0 km/h (0 Bft)
18.05.2015 23:00 13,7 C 13,3 C 74 % 1009,4 hPa 0,0 mm 0,0 km/h (0 Bft) S 180 9,2 C 0,0 km/h (0 Bft)
18.05.2015 23:05 13,6 C 13,2 C 74 % 1009,4 hPa 0,0 mm 0,0 km/h (0 Bft) S 180 9,1 C 0,0 km/h (0 Bft)
18.05.2015 23:10 13,4 C 13,0 C 75 % 1009,4 hPa 0,0 mm 0,0 km/h (0 Bft) SW 225 9,1 C 0,0 km/h (0 Bft)
18.05.2015 23:15 13,3 C 12,9 C 75 % 1009,1 hPa 0,0 mm 0,0 km/h (0 Bft) S-SO 157 9,0 C 0,0 km/h (0 Bft)
18.05.2015 23:20 13,3 C 12,9 C 76 % 1009,1 hPa 0,0 mm 0,0 km/h (0 Bft) S 180 9,2 C 0,0 km/h (0 Bft)
18.05.2015 23:25 13,1 C 12,7 C 76 % 1009,1 hPa 0,0 mm 0,0 km/h (0 Bft) S 180 9,0 C 0,0 km/h (0 Bft)
18.05.2015 23:30 12,9 C 12,6 C 77 % 1009,1 hPa 0,0 mm 0,0 km/h (0 Bft) SW 225 9,0 C 0,0 km/h (0 Bft)
18.05.2015 23:35 13,0 C 12,6 C 77 % 1009,1 hPa 0,0 mm 0,0 km/h (0 Bft) S 180 9,1 C 0,0 km/h (0 Bft)
18.05.2015 23:40 13,0 C 12,6 C 77 % 1009,1 hPa 0,0 mm 0,0 km/h (0 Bft) S 180 9,1 C 0,0 km/h (0 Bft)
18.05.2015 23:45 13,0 C 12,6 C 78 % 1009,1 hPa 0,0 mm 0,0 km/h (0 Bft) S-SO 157 9,3 C 0,0 km/h (0 Bft)
18.05.2015 23:50 12,8 C 12,5 C 78 % 1009,1 hPa 0,0 mm 0,0 km/h (0 Bft) NW 315 9,1 C 0,0 km/h (0 Bft)
18.05.2015 23:55 12,9 C 12,6 C 78 % 1008,9 hPa 0,0 mm 0,0 km/h (0 Bft) W 270 9,2 C 0,0 km/h (0 Bft)
_ Min-Zeit 05:35 05:35 15:45 23:55 - 23:55 - - 05:35 23:55
Minimum _ 4,7 C 4,5 C 48 % 1008,9 hPa - 0,0 km/h (0 Bft) - - 3,2 C 0,0 km/h (0 Bft)
_ Max-Zeit 15:40 15:50 06:05 00:10 23:55 13:55 - - 15:05 12:25
Maximum _ 23,3 C 27,9 C 91 % 1020,1 hPa 0,0 mm 8,3 km/h
O (2 Bft)
- - 12,7 C 18,6 km/h
N-NO (3 Bft)
Durchschnitt _ 15,0 C 17,6 C 69 % 1013,7 hPa #0,0 mm 2,3 km/h (1 Bft) NW - 8,8 C 2,9 km/h (1 Bft)